createdAt,value
2022-10-06T00:01:15.433Z,84.9
2022-10-06T00:02:31.740Z,84.8
2022-10-06T00:03:48.019Z,84.7
2022-10-06T00:05:04.311Z,84.7
2022-10-06T00:06:20.608Z,84.6
2022-10-06T00:07:36.902Z,84.5
2022-10-06T00:08:53.196Z,84.3
2022-10-06T00:10:09.490Z,84.2
2022-10-06T00:11:25.775Z,84
2022-10-06T00:12:42.075Z,83.9
2022-10-06T00:13:57.372Z,83.8
2022-10-06T00:15:13.671Z,83.6
2022-10-06T00:16:29.962Z,83.6
2022-10-06T00:17:46.254Z,83.5
2022-10-06T00:19:02.554Z,83.5
2022-10-06T00:20:18.841Z,83.4
2022-10-06T00:21:35.133Z,83.4
2022-10-06T00:22:51.436Z,83.4
2022-10-06T00:24:07.713Z,83.4
2022-10-06T00:25:24.022Z,83.4
2022-10-06T00:26:40.303Z,83.4
2022-10-06T00:27:56.604Z,83.4
2022-10-06T00:29:12.885Z,83.5
2022-10-06T00:30:28.203Z,83.5
2022-10-06T00:31:44.483Z,83.5
2022-10-06T00:33:00.786Z,83.6
2022-10-06T00:34:17.086Z,83.6
2022-10-06T00:35:33.374Z,83.7
2022-10-06T00:36:49.660Z,83.8
2022-10-06T00:38:05.958Z,83.9
2022-10-06T00:39:22.237Z,84
2022-10-06T00:40:38.543Z,84.2
2022-10-06T00:41:54.840Z,84.2
2022-10-06T00:43:11.132Z,84.3
2022-10-06T00:44:27.419Z,84.4
2022-10-06T00:45:43.714Z,84.4
2022-10-06T00:46:59.012Z,84.5
2022-10-06T00:48:15.299Z,84.6
2022-10-06T00:49:31.611Z,84.7
2022-10-06T00:50:47.889Z,84.9
2022-10-06T00:52:04.187Z,85.1
2022-10-06T00:53:20.478Z,85.2
2022-10-06T00:54:36.769Z,85.3
2022-10-06T00:55:53.060Z,85.4
2022-10-06T00:57:09.362Z,85.4
2022-10-06T00:58:25.645Z,85.5
2022-10-06T00:59:41.940Z,85.6
2022-10-06T01:00:58.243Z,85.6
2022-10-06T01:02:14.517Z,85.7
2022-10-06T01:03:29.840Z,85.7
2022-10-06T01:04:46.123Z,85.7
2022-10-06T01:06:02.423Z,85.7
2022-10-06T01:07:18.720Z,85.8
2022-10-06T01:08:34.995Z,85.7
2022-10-06T01:09:51.288Z,85.8
2022-10-06T01:11:06.610Z,85.7
2022-10-06T01:12:22.898Z,85.7
2022-10-06T01:13:39.200Z,85.6
2022-10-06T01:14:55.492Z,85.5
2022-10-06T01:16:11.774Z,85.5
2022-10-06T01:17:28.063Z,85.4
2022-10-06T01:18:44.368Z,85.3
2022-10-06T01:20:00.660Z,85.3
2022-10-06T01:21:16.951Z,85.1
2022-10-06T01:22:33.232Z,85.1
2022-10-06T01:23:49.544Z,85.1
2022-10-06T01:25:05.835Z,85
2022-10-06T01:26:22.129Z,85.1
2022-10-06T01:27:37.426Z,85
2022-10-06T01:28:53.729Z,84.9
2022-10-06T01:30:10.005Z,85
2022-10-06T01:31:26.318Z,85
2022-10-06T01:32:42.600Z,85.1
2022-10-06T01:33:58.887Z,85.2
2022-10-06T01:35:15.182Z,85.4
2022-10-06T01:36:31.480Z,85.5
2022-10-06T01:37:47.765Z,85.7
2022-10-06T01:39:04.069Z,85.8
2022-10-06T01:40:20.357Z,86
2022-10-06T01:41:36.639Z,86.4
2022-10-06T01:42:52.947Z,86.5
2022-10-06T01:44:08.245Z,86.6
2022-10-06T01:45:24.533Z,86.8
2022-10-06T01:46:40.829Z,87
2022-10-06T01:47:57.121Z,87.1
2022-10-06T01:49:13.420Z,87.3
2022-10-06T01:50:29.717Z,87.4
2022-10-06T01:51:46.007Z,87.5
2022-10-06T01:53:02.300Z,87.7
2022-10-06T01:54:18.590Z,87.7
2022-10-06T01:55:34.885Z,87.8
2022-10-06T01:56:51.168Z,88
2022-10-06T01:58:07.467Z,88
2022-10-06T01:59:23.756Z,88
2022-10-06T02:00:40.053Z,88.2
2022-10-06T02:01:55.358Z,88.3
2022-10-06T02:03:11.658Z,88.4
2022-10-06T02:04:27.938Z,88.4
2022-10-06T02:05:44.224Z,88.3
2022-10-06T02:07:00.535Z,88.5
2022-10-06T02:08:16.820Z,88.6
2022-10-06T02:09:33.114Z,88.9
2022-10-06T02:10:49.398Z,88.8
2022-10-06T02:12:05.698Z,88.8
2022-10-06T02:13:21.987Z,89.3
2022-10-06T02:14:38.283Z,89.4
2022-10-06T02:15:54.582Z,89.7
2022-10-06T02:17:10.867Z,89.8
2022-10-06T02:18:26.175Z,90.3
2022-10-06T02:19:42.468Z,90.5
2022-10-06T02:20:58.758Z,90.5
2022-10-06T02:22:15.056Z,90.2
2022-10-06T02:23:31.350Z,90.2
2022-10-06T02:24:47.637Z,90.7
2022-10-06T02:26:03.930Z,91
2022-10-06T02:27:20.227Z,91.4
2022-10-06T02:28:36.515Z,91.5
2022-10-06T02:29:52.000Z,91.4
2022-10-06T02:31:09.000Z,91
2022-10-06T02:32:25.402Z,90.9
2022-10-06T02:33:41.682Z,90.7
2022-10-06T02:34:56.994Z,90.4
2022-10-06T02:36:13.278Z,90.2
2022-10-06T02:37:29.570Z,90.1
2022-10-06T02:38:45.870Z,89.8
2022-10-06T02:40:02.163Z,89.7
2022-10-06T02:41:18.458Z,89.5
2022-10-06T02:42:34.753Z,89.2
2022-10-06T02:43:51.047Z,89.1
2022-10-06T02:45:07.331Z,88.9
2022-10-06T02:46:23.629Z,88.7
2022-10-06T02:47:39.924Z,88.6
2022-10-06T02:48:56.214Z,88.5
2022-10-06T02:50:12.501Z,88.5
2022-10-06T02:51:27.820Z,88.5
2022-10-06T02:52:44.105Z,88.5
2022-10-06T02:54:00.397Z,88.4
2022-10-06T02:55:16.681Z,88.4
2022-10-06T02:56:32.990Z,88.6
2022-10-06T02:57:49.277Z,88.6
2022-10-06T02:59:05.574Z,88.6
2022-10-06T03:01:38.153Z,88.5
2022-10-06T03:02:54.448Z,88.3
2022-10-06T03:04:10.729Z,88.2
2022-10-06T03:05:27.037Z,88
2022-10-06T03:06:43.312Z,88
2022-10-06T03:07:58.632Z,87.8
2022-10-06T03:09:14.922Z,87.7
2022-10-06T03:10:31.210Z,87.6
2022-10-06T03:11:47.499Z,87.5
2022-10-06T03:13:03.803Z,87.4
2022-10-06T03:14:20.098Z,87.3
2022-10-06T03:15:36.388Z,87.1
2022-10-06T03:16:52.676Z,87
2022-10-06T03:18:08.959Z,86.7
2022-10-06T03:19:25.270Z,86.5
2022-10-06T03:20:41.550Z,86
2022-10-06T03:21:57.838Z,85.9
2022-10-06T03:23:14.131Z,85.5
2022-10-06T03:24:29.438Z,85.3
2022-10-06T03:25:45.741Z,85
2022-10-06T03:27:02.037Z,84.4
2022-10-06T03:28:18.331Z,84.1
2022-10-06T03:29:34.626Z,83.9
2022-10-06T03:30:50.918Z,83.7
2022-10-06T03:32:07.195Z,83.5
2022-10-06T03:33:23.485Z,83.4
2022-10-06T03:34:39.777Z,83.3
2022-10-06T03:35:56.084Z,83.2
2022-10-06T03:37:12.368Z,83.1
2022-10-06T03:38:28.653Z,83.1
2022-10-06T03:39:44.966Z,83
2022-10-06T03:41:00.257Z,82.8
2022-10-06T03:42:16.549Z,82.5
2022-10-06T03:43:32.841Z,82.5
2022-10-06T03:44:49.138Z,82.5
2022-10-06T03:46:05.430Z,82.4
2022-10-06T03:47:21.725Z,82.4
2022-10-06T03:48:38.022Z,82.4
2022-10-06T03:49:54.305Z,82.4
2022-10-06T03:51:10.600Z,82.4
2022-10-06T03:52:26.904Z,82.4
2022-10-06T03:53:43.188Z,82.4
2022-10-06T03:54:59.480Z,82.4
2022-10-06T03:56:15.766Z,82.4
2022-10-06T03:57:31.076Z,82.5
2022-10-06T03:58:47.364Z,82.4
2022-10-06T04:00:03.661Z,82.6
2022-10-06T04:01:19.949Z,82.5
2022-10-06T04:02:36.247Z,82.5
2022-10-06T04:03:52.551Z,82.8
2022-10-06T04:05:08.830Z,82.6
2022-10-06T04:06:25.122Z,82.8
2022-10-06T04:07:41.429Z,82.8
2022-10-06T04:08:57.706Z,82.6
2022-10-06T04:10:13.996Z,82.6
2022-10-06T04:11:30.289Z,82.8
2022-10-06T04:12:46.590Z,82.8
2022-10-06T04:14:01.889Z,82.8
2022-10-06T04:15:18.183Z,82.8
2022-10-06T04:16:34.478Z,82.6
2022-10-06T04:17:50.772Z,82.8
2022-10-06T04:19:07.078Z,82.6
2022-10-06T04:20:23.363Z,82.8
2022-10-06T04:21:39.657Z,82.8
2022-10-06T04:22:55.935Z,82.8
2022-10-06T04:24:12.238Z,82.8
2022-10-06T04:25:28.538Z,82.8
2022-10-06T04:26:44.818Z,82.8
2022-10-06T04:28:01.114Z,82.8
2022-10-06T04:29:17.406Z,83
2022-10-06T04:30:32.721Z,83
2022-10-06T04:31:49.007Z,83
2022-10-06T04:33:05.293Z,83
2022-10-06T04:34:21.583Z,83
2022-10-06T04:35:37.888Z,83.3
2022-10-06T04:36:54.168Z,83.3
2022-10-06T04:38:10.474Z,83.2
2022-10-06T04:39:26.764Z,83.3
2022-10-06T04:40:43.061Z,83.3
2022-10-06T04:41:59.355Z,83.3
2022-10-06T04:43:15.648Z,83.5
2022-10-06T04:44:31.935Z,83.3
2022-10-06T04:45:48.234Z,83.3
2022-10-06T04:47:03.528Z,83.3
2022-10-06T04:48:19.823Z,83.5
2022-10-06T04:49:36.128Z,83.5
2022-10-06T04:50:52.420Z,83.5
2022-10-06T04:52:08.708Z,83.7
2022-10-06T04:53:24.999Z,84
2022-10-06T04:54:41.283Z,83.8
2022-10-06T04:55:57.573Z,84.1
2022-10-06T04:57:13.882Z,84.2
2022-10-06T04:59:46.452Z,84.7
2022-10-06T05:01:02.758Z,84.6
2022-10-06T05:02:18.991Z,84.7
2022-10-06T05:03:34.265Z,84.8
2022-10-06T05:04:50.499Z,84.8
2022-10-06T05:06:06.748Z,84.5
2022-10-06T05:07:22.982Z,84.4
2022-10-06T05:08:39.210Z,84.4
2022-10-06T05:09:55.464Z,84.5
2022-10-06T05:11:11.695Z,84.8
2022-10-06T05:12:27.928Z,84.9
2022-10-06T05:13:44.171Z,83.3
2022-10-06T05:15:00.406Z,83
2022-10-06T05:16:16.646Z,82
2022-10-06T05:17:32.892Z,81.6
2022-10-06T05:18:49.123Z,81.7
2022-10-06T05:20:04.387Z,81.2
2022-10-06T05:21:20.630Z,81
2022-10-06T05:22:36.852Z,81.2
2022-10-06T05:23:53.090Z,81.3
2022-10-06T05:25:09.338Z,81.7
2022-10-06T05:26:24.597Z,81.5
2022-10-06T05:27:40.832Z,81.3
2022-10-06T05:28:57.082Z,81.6
2022-10-06T05:30:13.316Z,81.5
2022-10-06T05:31:29.539Z,81.7
2022-10-06T05:32:45.783Z,81.7
2022-10-06T05:34:02.034Z,82
2022-10-06T05:35:18.257Z,82.1
2022-10-06T05:36:34.508Z,82.1
2022-10-06T05:37:50.742Z,82.6
2022-10-06T05:39:06.974Z,82.6
2022-10-06T05:40:23.208Z,83
2022-10-06T05:41:39.450Z,83.9
2022-10-06T05:42:54.712Z,84.2
2022-10-06T05:44:10.951Z,85
2022-10-06T05:45:27.180Z,86.3
2022-10-06T05:46:43.419Z,87.6
2022-10-06T05:47:59.645Z,89
2022-10-06T05:49:15.887Z,90.1
2022-10-06T05:50:32.125Z,92.1
2022-10-06T05:51:48.367Z,92.4
2022-10-06T05:53:04.591Z,93.8
2022-10-06T05:54:20.831Z,94.5
2022-10-06T05:55:37.081Z,94.9
2022-10-06T05:56:53.309Z,95.2
2022-10-06T05:58:09.563Z,95.7
2022-10-06T05:59:24.808Z,96
2022-10-06T06:00:41.039Z,96.4
2022-10-06T06:01:57.281Z,96.6
2022-10-06T06:03:13.528Z,96.8
2022-10-06T06:04:29.756Z,97.2
2022-10-06T06:05:46.009Z,97.3
2022-10-06T06:07:02.246Z,97.3
2022-10-06T06:08:18.476Z,97.3
2022-10-06T06:09:34.711Z,97.1
2022-10-06T06:10:50.963Z,97.2
2022-10-06T06:12:07.188Z,97.4
2022-10-06T06:13:23.432Z,97.7
2022-10-06T06:14:39.665Z,98.2
2022-10-06T06:15:54.919Z,98.2
2022-10-06T06:17:11.161Z,98.4
2022-10-06T06:18:27.402Z,98.2
2022-10-06T06:19:43.631Z,98.3
2022-10-06T06:20:59.868Z,98.2
2022-10-06T06:22:16.118Z,98.5
2022-10-06T06:23:32.347Z,98.5
2022-10-06T06:24:48.582Z,98.2
2022-10-06T06:26:04.820Z,98.5
2022-10-06T06:27:21.061Z,98.3
2022-10-06T06:28:37.305Z,98.3
2022-10-06T06:29:53.554Z,98.2
2022-10-06T06:31:09.789Z,97
2022-10-06T06:32:25.035Z,95.2
2022-10-06T06:33:41.285Z,95.8
2022-10-06T06:34:57.513Z,94.6
2022-10-06T06:36:13.748Z,94.3
2022-10-06T06:37:29.990Z,94
2022-10-06T06:38:46.232Z,94.7
2022-10-06T06:40:02.477Z,93.3
2022-10-06T06:41:18.705Z,92.7
2022-10-06T06:42:34.943Z,90.2
2022-10-06T06:43:51.179Z,90.7
2022-10-06T06:45:07.414Z,91.2
2022-10-06T06:46:23.670Z,91.5
2022-10-06T06:47:39.896Z,92.5
2022-10-06T06:48:55.151Z,89.8
2022-10-06T06:50:11.400Z,88.9
2022-10-06T06:51:27.640Z,88.7
2022-10-06T06:52:43.872Z,88.2
2022-10-06T06:54:00.116Z,88.5
2022-10-06T06:55:16.342Z,88.7
2022-10-06T06:56:32.586Z,89.3
2022-10-06T06:57:48.820Z,89.9
2022-10-06T06:59:05.062Z,88.5
2022-10-06T07:00:21.306Z,89
2022-10-06T07:01:37.535Z,89.3
2022-10-06T07:02:53.776Z,89.2
2022-10-06T07:04:10.018Z,89.2
2022-10-06T07:05:25.262Z,88.9
2022-10-06T07:06:41.498Z,88.9
2022-10-06T07:07:57.747Z,88.9
2022-10-06T07:09:13.991Z,89.5
2022-10-06T07:10:30.231Z,89.2
2022-10-06T07:11:46.464Z,89.7
2022-10-06T07:13:02.690Z,90.5
2022-10-06T07:14:18.928Z,90.3
2022-10-06T07:15:35.174Z,89.8
2022-10-06T07:16:51.423Z,90
2022-10-06T07:18:07.645Z,89
2022-10-06T07:19:23.893Z,89.3
2022-10-06T07:20:40.128Z,88.5
2022-10-06T07:23:11.623Z,88
2022-10-06T07:24:27.867Z,88.2
2022-10-06T07:25:44.106Z,88
2022-10-06T07:27:00.345Z,88.1
2022-10-06T07:28:16.579Z,87.1
2022-10-06T07:29:32.823Z,87.1
2022-10-06T07:30:49.045Z,86.5
2022-10-06T07:32:05.291Z,85.5
2022-10-06T07:33:21.540Z,85.3
2022-10-06T07:34:37.778Z,85.5
2022-10-06T07:35:54.000Z,84.7
2022-10-06T07:37:10.235Z,84.8
2022-10-06T07:38:25.494Z,84.5
2022-10-06T07:39:41.739Z,84
2022-10-06T07:40:57.978Z,84.3
2022-10-06T07:42:14.207Z,84.7
2022-10-06T07:43:30.459Z,84.2
2022-10-06T07:44:46.690Z,84.9
2022-10-06T07:46:02.938Z,83.5
2022-10-06T07:47:19.168Z,82.3
2022-10-06T07:48:35.414Z,82.2
2022-10-06T07:49:51.653Z,81.2
2022-10-06T07:51:07.881Z,80.8
2022-10-06T07:52:24.128Z,80.5
2022-10-06T07:53:40.368Z,79.9
2022-10-06T07:54:55.613Z,78.9
2022-10-06T07:56:11.860Z,78.7
2022-10-06T07:57:28.092Z,77.7
2022-10-06T07:58:44.326Z,76.1
2022-10-06T08:00:00.562Z,74.5
2022-10-06T08:01:16.813Z,73.2
2022-10-06T08:02:33.055Z,72.4
2022-10-06T08:03:49.281Z,71.4
2022-10-06T08:05:05.514Z,70.5
2022-10-06T08:06:21.759Z,69.6
2022-10-06T08:07:37.993Z,69.8
2022-10-06T08:08:54.237Z,68.7
2022-10-06T08:10:10.472Z,67.9
2022-10-06T08:11:25.721Z,67.8
2022-10-06T08:12:41.974Z,66.5
2022-10-06T08:13:58.214Z,67.1
2022-10-06T08:15:14.453Z,67
2022-10-06T08:16:30.693Z,66.6
2022-10-06T08:17:46.928Z,64
2022-10-06T08:19:03.170Z,66.2
2022-10-06T08:20:19.392Z,66.4
2022-10-06T08:21:35.633Z,64.7
2022-10-06T08:22:51.869Z,64.9
2022-10-06T08:24:08.106Z,64
2022-10-06T08:25:24.347Z,64.8
2022-10-06T08:26:40.585Z,64.5
2022-10-06T08:27:55.841Z,64.8
2022-10-06T08:29:12.092Z,63.6
2022-10-06T08:30:28.323Z,62.5
2022-10-06T08:31:44.567Z,60.2
2022-10-06T08:33:00.801Z,61.5
2022-10-06T08:34:17.033Z,61.5
2022-10-06T08:35:33.273Z,58
2022-10-06T08:36:49.519Z,58.9
2022-10-06T08:38:05.757Z,59.5
2022-10-06T08:39:21.999Z,57.6
2022-10-06T08:40:38.236Z,57.7
2022-10-06T08:41:54.460Z,57.7
2022-10-06T08:43:10.706Z,55.8
2022-10-06T08:44:25.961Z,56.3
2022-10-06T08:45:42.192Z,57.1
2022-10-06T08:46:58.434Z,55.9
2022-10-06T08:48:14.679Z,56.9
2022-10-06T08:49:30.910Z,56.1
2022-10-06T08:50:47.150Z,56.1
2022-10-06T08:52:03.396Z,57.9
2022-10-06T08:53:19.631Z,56.8
2022-10-06T08:54:35.876Z,55.9
2022-10-06T08:55:52.111Z,54.8
2022-10-06T08:57:08.341Z,55.9
2022-10-06T08:58:24.588Z,54.7
2022-10-06T08:59:40.815Z,55.1
2022-10-06T09:00:56.075Z,54
2022-10-06T09:02:12.308Z,55.8
2022-10-06T09:03:28.546Z,53.8
2022-10-06T09:04:44.787Z,54.6
2022-10-06T09:06:01.034Z,53.1
2022-10-06T09:07:17.272Z,53.4
2022-10-06T09:08:33.494Z,51.6
2022-10-06T09:09:49.749Z,51.5
2022-10-06T09:11:05.982Z,52.1
2022-10-06T09:12:22.229Z,51.8
2022-10-06T09:13:38.450Z,51.1
2022-10-06T09:14:54.704Z,49.6
2022-10-06T09:16:10.940Z,50.7
2022-10-06T09:17:26.180Z,50.3
2022-10-06T09:18:42.427Z,52.3
2022-10-06T09:19:58.665Z,51.6
2022-10-06T09:21:14.896Z,51.8
2022-10-06T09:22:31.148Z,51.5
2022-10-06T09:23:47.380Z,50.7
2022-10-06T09:25:03.618Z,52.2
2022-10-06T09:33:56.305Z,49.5
2022-10-06T09:35:12.541Z,51.1
2022-10-06T09:36:28.780Z,52.7
2022-10-06T09:37:45.030Z,51.9
2022-10-06T09:39:01.258Z,53.3
2022-10-06T09:41:32.759Z,55.8
2022-10-06T09:45:21.484Z,56.8
2022-10-06T09:46:37.730Z,55
2022-10-06T09:49:10.197Z,52.2
2022-10-06T09:50:26.449Z,50.6
2022-10-06T09:51:42.666Z,53
2022-10-06T09:54:15.172Z,52.9
2022-10-06T09:55:31.400Z,51.9
2022-10-06T09:56:47.646Z,51.8
2022-10-06T09:58:04.011Z,51.5
2022-10-06T09:59:20.232Z,50.7
2022-10-06T10:00:36.471Z,47.1
2022-10-06T10:01:52.725Z,48.9
2022-10-06T10:03:08.952Z,46.8
2022-10-06T10:04:25.200Z,46.9
2022-10-06T10:05:41.449Z,47.3
2022-10-06T10:06:57.681Z,44.7
2022-10-06T10:08:13.919Z,46.3
2022-10-06T10:09:30.152Z,50.2
2022-10-06T10:10:46.400Z,52.1
2022-10-06T10:12:02.639Z,53.8
2022-10-06T10:13:18.865Z,54.5
2022-10-06T10:14:34.136Z,54.7
2022-10-06T10:15:50.359Z,55.2
2022-10-06T10:17:06.610Z,56.2
2022-10-06T10:18:22.843Z,56.3
2022-10-06T10:19:39.092Z,57.5
2022-10-06T10:20:55.314Z,57.4
2022-10-06T10:22:11.565Z,58
2022-10-06T10:23:27.798Z,58.1
2022-10-06T10:24:44.043Z,57.5
2022-10-06T10:26:00.275Z,58
2022-10-06T10:27:16.524Z,58.5
2022-10-06T10:28:32.752Z,58.3
2022-10-06T10:29:48.993Z,56.5
2022-10-06T10:31:04.239Z,54.2
2022-10-06T10:32:20.493Z,50.3
2022-10-06T10:33:36.717Z,49.5
2022-10-06T10:34:52.970Z,46.6
2022-10-06T10:36:09.204Z,46.7
2022-10-06T10:37:25.441Z,44.5
2022-10-06T10:38:41.674Z,43
2022-10-06T10:39:57.920Z,42.2
2022-10-06T10:41:14.160Z,44.1
2022-10-06T10:42:30.402Z,43.4
2022-10-06T10:43:46.637Z,45.1
2022-10-06T10:45:02.879Z,43.4
2022-10-06T10:46:19.112Z,42.8
2022-10-06T10:47:34.368Z,43.2
2022-10-06T10:48:50.592Z,41.9
2022-10-06T10:50:06.839Z,42.2
2022-10-06T10:51:23.074Z,41
2022-10-06T10:52:39.313Z,41.1
2022-10-06T10:53:55.547Z,42.7
2022-10-06T10:55:11.803Z,42.9
2022-10-06T10:56:28.031Z,45
2022-10-06T10:57:44.268Z,46.5
2022-10-06T10:59:00.520Z,45.1
2022-10-06T11:00:16.747Z,47
2022-10-06T11:01:32.997Z,49.7
2022-10-06T11:02:49.230Z,49.6
2022-10-06T11:04:04.493Z,47.5
2022-10-06T11:05:20.724Z,47.1
2022-10-06T11:06:36.970Z,45.9
2022-10-06T11:07:53.201Z,45.4
2022-10-06T11:09:09.445Z,42.8
2022-10-06T11:10:25.677Z,42.9
2022-10-06T11:11:41.906Z,41.9
2022-10-06T11:12:58.164Z,41
2022-10-06T11:14:14.386Z,41.3
2022-10-06T11:15:30.633Z,41.4
2022-10-06T11:16:46.867Z,39.9
2022-10-06T11:18:03.113Z,40.2
2022-10-06T11:19:19.353Z,41.5
2022-10-06T11:20:34.596Z,40.3
2022-10-06T11:21:50.849Z,40.6
2022-10-06T11:23:07.086Z,39.5
2022-10-06T11:24:23.311Z,40.4
2022-10-06T11:25:39.555Z,41.3
2022-10-06T11:26:55.788Z,40.9
2022-10-06T11:28:12.039Z,38.7
2022-10-06T11:29:28.282Z,37.1
2022-10-06T11:30:44.521Z,38.8
2022-10-06T11:32:00.747Z,38
2022-10-06T11:33:16.990Z,38.8
2022-10-06T11:34:33.231Z,40.2
2022-10-06T11:35:49.464Z,39.7
2022-10-06T11:37:04.735Z,40.1
2022-10-06T11:38:20.954Z,40.5
2022-10-06T11:39:37.210Z,39
2022-10-06T11:40:53.433Z,40.5
2022-10-06T11:42:09.681Z,39.4
2022-10-06T11:43:25.919Z,40.9
2022-10-06T11:44:42.153Z,38.6
2022-10-06T11:45:58.405Z,37.6
2022-10-06T11:47:14.643Z,38.5
2022-10-06T11:48:30.880Z,39.3
2022-10-06T11:49:47.120Z,36.9
2022-10-06T11:51:03.352Z,36.9
2022-10-06T11:52:19.590Z,38.2
2022-10-06T11:53:34.836Z,37.8
2022-10-06T11:54:51.073Z,39.1
2022-10-06T11:56:07.312Z,37.6
2022-10-06T11:57:23.557Z,37.5
2022-10-06T11:58:39.800Z,37.2
2022-10-06T11:59:56.044Z,37.9
2022-10-06T12:01:12.284Z,37.9
2022-10-06T12:02:28.519Z,39.3
2022-10-06T12:03:44.748Z,41.5
2022-10-06T12:05:00.993Z,38.8
2022-10-06T12:06:17.242Z,38.4
2022-10-06T12:07:33.467Z,38.3
2022-10-06T12:08:49.718Z,38.7
2022-10-06T12:10:04.970Z,39
2022-10-06T12:11:21.194Z,39.9
2022-10-06T12:12:37.451Z,39
2022-10-06T12:13:53.683Z,39.9
2022-10-06T12:15:09.914Z,40.5
2022-10-06T12:16:26.160Z,40
2022-10-06T12:17:42.403Z,38.4
2022-10-06T12:18:58.638Z,38.5
2022-10-06T12:20:14.871Z,40.2
2022-10-06T12:21:31.107Z,39
2022-10-06T12:22:47.347Z,39.9
2022-10-06T12:24:03.593Z,42.4
2022-10-06T12:25:19.824Z,40.4
2022-10-06T12:26:35.090Z,41.3
2022-10-06T12:27:51.327Z,42.1
2022-10-06T12:29:07.560Z,40.9
2022-10-06T12:30:23.794Z,40.7
2022-10-06T12:31:40.039Z,41.6
2022-10-06T12:32:56.280Z,40.9
2022-10-06T12:34:12.521Z,40.3
2022-10-06T12:35:28.751Z,40.7
2022-10-06T12:36:45.002Z,39.7
2022-10-06T12:38:01.243Z,39.6
2022-10-06T12:39:17.475Z,39
2022-10-06T12:40:33.710Z,37.7
2022-10-06T12:41:49.955Z,38.1
2022-10-06T12:43:05.197Z,39.1
2022-10-06T12:44:21.455Z,39.1
2022-10-06T12:45:37.681Z,39.5
2022-10-06T12:46:53.920Z,39
2022-10-06T12:48:10.162Z,39.5
2022-10-06T12:49:26.400Z,38.7
2022-10-06T12:50:42.641Z,41
2022-10-06T12:51:58.866Z,39.2
2022-10-06T12:53:15.118Z,38.9
2022-10-06T12:54:31.359Z,41.5
2022-10-06T12:55:47.604Z,41.5
2022-10-06T12:57:03.842Z,41.8
2022-10-06T12:58:20.069Z,39.7
2022-10-06T12:59:35.322Z,39.9
2022-10-06T13:00:51.557Z,39.7
2022-10-06T13:02:07.815Z,40.4
2022-10-06T13:03:24.038Z,43.2
2022-10-06T13:04:40.280Z,40.9
2022-10-06T13:05:56.521Z,41.3
2022-10-06T13:07:12.754Z,40.3
2022-10-06T13:08:28.997Z,40.7
2022-10-06T13:09:45.244Z,41
2022-10-06T13:11:01.480Z,40.1
2022-10-06T13:12:17.717Z,41.9
2022-10-06T13:13:33.958Z,41.8
2022-10-06T13:14:50.192Z,42.5
2022-10-06T13:16:05.446Z,41
2022-10-06T13:17:21.691Z,42.7
2022-10-06T13:18:37.923Z,42
2022-10-06T13:19:54.167Z,41
2022-10-06T13:21:10.410Z,41.6
2022-10-06T13:22:26.641Z,39.4
2022-10-06T13:23:42.878Z,40.2
2022-10-06T13:24:59.116Z,40.4
2022-10-06T13:26:15.355Z,42
2022-10-06T13:27:31.592Z,42
2022-10-06T13:28:47.827Z,40.5
2022-10-06T13:30:04.073Z,39.8
2022-10-06T13:31:20.304Z,39.6
2022-10-06T13:32:35.577Z,40.3
2022-10-06T13:33:51.799Z,43.5
2022-10-06T13:35:08.038Z,42.6
2022-10-06T13:36:24.281Z,41.5
2022-10-06T13:37:40.521Z,40.2
2022-10-06T13:38:56.762Z,41.2
2022-10-06T13:40:13.008Z,41.5
2022-10-06T13:41:29.248Z,40.3
2022-10-06T13:42:45.478Z,41.7
2022-10-06T13:44:01.719Z,41.5
2022-10-06T13:45:17.966Z,41.8
2022-10-06T13:46:34.190Z,41.6
2022-10-06T13:47:50.444Z,43.6
2022-10-06T13:49:05.688Z,44
2022-10-06T13:50:21.927Z,46
2022-10-06T13:51:38.172Z,43.4
2022-10-06T13:52:54.412Z,43.4
2022-10-06T13:54:10.633Z,44.1
2022-10-06T13:55:26.887Z,44.6
2022-10-06T13:56:42.137Z,43.8
2022-10-06T13:57:58.371Z,42.3
2022-10-06T13:59:14.629Z,43.9
2022-10-06T14:00:30.861Z,46.2
2022-10-06T14:01:47.105Z,42.9
2022-10-06T14:03:03.332Z,43.2
2022-10-06T14:04:19.583Z,42.3
2022-10-06T14:05:35.817Z,44.5
2022-10-06T14:06:52.049Z,43.3
2022-10-06T14:08:08.296Z,41.8
2022-10-06T14:09:24.538Z,43.2
2022-10-06T14:10:40.758Z,43.4
2022-10-06T14:11:57.005Z,44.7
2022-10-06T14:13:12.253Z,44
2022-10-06T14:14:28.498Z,42.7
2022-10-06T14:15:44.741Z,44.6
2022-10-06T14:17:00.982Z,45.3
2022-10-06T14:18:17.220Z,45
2022-10-06T14:19:33.449Z,43.1
2022-10-06T14:20:49.687Z,44.3
2022-10-06T14:22:05.924Z,43.5
2022-10-06T14:23:22.169Z,44.8
2022-10-06T14:24:38.410Z,43.9
2022-10-06T14:25:54.643Z,43.9
2022-10-06T14:27:10.890Z,43.7
2022-10-06T14:28:27.119Z,43.2
2022-10-06T14:29:42.382Z,43.4
2022-10-06T14:30:58.616Z,43.9
2022-10-06T14:32:14.859Z,44.2
2022-10-06T14:33:31.097Z,45.7
2022-10-06T14:34:47.338Z,44.7
2022-10-06T14:36:03.564Z,45
2022-10-06T14:37:19.806Z,45
2022-10-06T14:38:36.048Z,43.6
2022-10-06T14:39:52.282Z,43.4
2022-10-06T14:41:08.524Z,44.9
2022-10-06T14:42:24.759Z,43.9
2022-10-06T14:43:41.006Z,44.9
2022-10-06T14:44:57.245Z,45
2022-10-06T14:46:12.499Z,45.3
2022-10-06T14:47:28.736Z,44.9
2022-10-06T14:48:44.979Z,44.3
2022-10-06T14:50:01.221Z,44
2022-10-06T14:51:17.447Z,43.7
2022-10-06T14:52:33.685Z,43.9
2022-10-06T14:53:49.930Z,44
2022-10-06T14:55:06.166Z,44.6
2022-10-06T14:56:22.398Z,44.9
2022-10-06T14:57:38.651Z,45.6
2022-10-06T14:58:54.886Z,44.5
2022-10-06T15:00:11.000Z,44.8
2022-10-06T15:01:27.368Z,44.6
2022-10-06T15:02:42.614Z,45.4
2022-10-06T15:03:58.857Z,43.6
2022-10-06T15:05:15.102Z,43.9
2022-10-06T15:06:31.321Z,44.1
2022-10-06T15:07:47.568Z,45
2022-10-06T15:09:03.810Z,45.3
2022-10-06T15:10:20.041Z,46.4
2022-10-06T15:11:36.281Z,47.7
2022-10-06T15:12:52.517Z,49.6
2022-10-06T15:14:08.764Z,48.2
2022-10-06T15:15:24.993Z,48.7
2022-10-06T15:16:41.245Z,49.2
2022-10-06T15:17:57.477Z,49
2022-10-06T15:19:12.738Z,50
2022-10-06T15:20:28.967Z,51.6
2022-10-06T15:21:45.211Z,52.1
2022-10-06T15:23:01.448Z,52
2022-10-06T15:24:17.696Z,53.6
2022-10-06T15:25:33.917Z,53.5
2022-10-06T15:26:50.158Z,55
2022-10-06T15:28:06.404Z,54.6
2022-10-06T15:29:22.648Z,54.5
2022-10-06T15:30:38.888Z,54.3
2022-10-06T15:31:55.110Z,53.2
2022-10-06T15:33:11.359Z,52.5
2022-10-06T15:34:27.603Z,52.8
2022-10-06T15:35:42.840Z,53
2022-10-06T15:36:59.082Z,53.1
2022-10-06T15:38:15.337Z,52.8
2022-10-06T15:39:31.565Z,52.7
2022-10-06T15:40:47.795Z,53.5
2022-10-06T15:42:04.039Z,53.6
2022-10-06T15:43:20.278Z,53.8
2022-10-06T15:44:36.520Z,52.6
2022-10-06T15:45:52.750Z,53
2022-10-06T15:47:09.005Z,53.3
2022-10-06T15:48:25.231Z,53.3
2022-10-06T15:49:41.465Z,53.6
2022-10-06T15:50:57.720Z,54
2022-10-06T15:52:12.977Z,54
2022-10-06T15:53:29.195Z,54.5
2022-10-06T15:54:45.449Z,54.8
2022-10-06T15:56:01.678Z,55.1
2022-10-06T15:57:17.914Z,55.7
2022-10-06T15:58:34.166Z,56.1
2022-10-06T15:59:50.405Z,56.4
2022-10-06T16:01:06.634Z,56.9
2022-10-06T16:02:22.872Z,56.9
2022-10-06T16:03:39.101Z,57.1
2022-10-06T16:04:55.360Z,57.4
2022-10-06T16:06:11.588Z,57.6
2022-10-06T16:07:27.829Z,57.9
2022-10-06T16:08:43.076Z,57.9
2022-10-06T16:09:59.323Z,58.3
2022-10-06T16:11:15.548Z,59.3
2022-10-06T16:12:31.795Z,59.5
2022-10-06T16:13:48.045Z,60.3
2022-10-06T16:15:04.279Z,62.2
2022-10-06T16:16:20.511Z,61.1
2022-10-06T16:17:36.755Z,60.7
2022-10-06T16:18:52.980Z,60.3
2022-10-06T16:20:09.229Z,59.9
2022-10-06T16:21:25.459Z,60
2022-10-06T16:22:41.709Z,60.3
2022-10-06T16:23:57.950Z,60
2022-10-06T16:25:13.187Z,60.5
2022-10-06T16:26:29.430Z,61.3
2022-10-06T16:27:45.680Z,61.8
2022-10-06T16:29:01.920Z,62.2
2022-10-06T16:30:18.153Z,62.2
2022-10-06T16:31:34.380Z,63.2
2022-10-06T16:32:50.633Z,63.2
2022-10-06T16:34:06.865Z,64.1
2022-10-06T16:35:23.106Z,64.8
2022-10-06T16:36:39.352Z,63.9
2022-10-06T16:37:55.580Z,64.6
2022-10-06T16:39:11.817Z,64.4
2022-10-06T16:40:28.058Z,64.2
2022-10-06T16:41:43.317Z,65.1
2022-10-06T16:42:59.559Z,64.7
2022-10-06T16:44:15.798Z,64.8
2022-10-06T16:45:32.026Z,65
2022-10-06T16:46:48.259Z,64.9
2022-10-06T16:48:04.495Z,65.5
2022-10-06T16:49:20.738Z,66.2
2022-10-06T16:50:36.986Z,66.8
2022-10-06T16:51:53.223Z,66.6
2022-10-06T16:53:09.449Z,67.6
2022-10-06T16:54:25.696Z,69.3
2022-10-06T16:55:41.936Z,69
2022-10-06T16:56:58.183Z,69.5
2022-10-06T16:58:13.435Z,70
2022-10-06T16:59:29.660Z,69.3
2022-10-06T17:00:45.900Z,69.9
2022-10-06T17:02:02.150Z,70.4
2022-10-06T17:03:18.371Z,70.3
2022-10-06T17:04:34.622Z,71.4
2022-10-06T17:05:50.863Z,71
2022-10-06T17:07:07.106Z,70.8
2022-10-06T17:08:23.345Z,70.5
2022-10-06T17:09:39.571Z,70.3
2022-10-06T17:10:55.820Z,70.7
2022-10-06T17:12:12.108Z,71.6
2022-10-06T17:13:28.390Z,71.4
2022-10-06T17:14:43.705Z,72.5
2022-10-06T17:16:00.005Z,72.2
2022-10-06T17:17:16.285Z,72.4
2022-10-06T17:18:32.575Z,73.4
2022-10-06T17:19:48.882Z,73.9